Ride Results

Imbil Forest Ride (14-09-1997)
Ride distance: 80.0 km

Outcomes - Imbil Forest Ride (14-09-1997)
Division No. of Entries Retired / DNE Completed Withdrawn Ineligible V/O Percentage Completed
HW 11 - 8 - - 3 72.73%
MW 29 - 21 - - 8 72.41%
LW 21 - 16 - - 5 76.19%
JN 13 - 9 - - 4 69.23%
Totals 74 - 54 - - 20 72.97%
Results - Imbil Forest Ride (14-09-1997)
No. Rider Horse Place Time Leg Speeds Total
Km/Hr
H/R bpm
Heavyweight
100 Roger Warner Benjamen B 1 (BC) 4:42:00 19.6, 15.1 17.02 35, 42, 44 (Avg:43)
94 David Nancarrow Dealbata T'hali 2 4:58:00 18.5, 14.4 16.11 36, 40, 44 (Avg:42)
60 Des Pickering Majira 2 4:58:00 18.5, 14.4 16.11 39, 47, 60 (Avg:53)
78 Jack Johnson Piabun Budjar 4 5:13:01 18.6, 13.1 15.33 33, 45, 52 (Avg:48)
54 Kevin Cook Numkimbil 5 5:13:02 18.0, 13.4 15.33 34, 40, 52 (Avg:46)
99 Noel Weismann Matta Mia Rasul 6 5:59:00 16.6, 11.3 13.37 34, 45, 52 (Avg:48)
21 Peter Birch Kamaret Gypsy 7 7:08:00 14.3, 9.3 11.21 36, 42, 48 (Avg:45)
13 Andy Hansen Akina Nessah 8 7:25:01 13.0, 9.3 10.79 36, 35, 44 (Avg:39)
58 Robert Fenech Kerala Mystique Lame L2 0:00:00 15.1, 11.1 - 36, 44, 48 (Avg:46)
95 Ken Warne Tanah Merah Neptune Lame L2 0:00:00 15.4, 9.6 - 34, 35, 42 (Avg:38)
44 Noel King Piabun Kundeer Lame L1 0:00:00 13.9 - 26, 33 (Avg:33)
Middleweight
52 Bruce Overton Charabal Doyen 1 (BC) 3:55:00 21.3, 19.6 20.43 32, 36, 45 (Avg:40)
80 Peter Pike Charabal Dashah 2 4:04:00 19.9, 19.3 19.67 40, 43, 44 (Avg:43)
66 Steven Vergis Noondi Sadja 3 4:11:00 20.7, 17.8 19.12 35, 39, 46 (Avg:42)
40 Noel Dorrington The Byzantine Cadet 4 4:43:00 19.1, 15.3 16.96 36, 39, 47 (Avg:43)
53 Olaf Lochtenberg Bolaro Yasmin 5 4:55:00 18.2, 14.8 16.27 27, 32, 50 (Avg:41)
39 Jeff Trevarthen Silver Indian 6 4:57:00 20.7, 13.4 16.16 37, 55, 53 (Avg:54)
23 Marlies Smith Marywood Rememdance 7 5:25:00 17.2, 13.0 14.77 27, 41, 51 (Avg:46)
87 Janet Bull Sundust Midnite 8 5:32:00 18.0, 12.2 14.46 36, 50, 50 (Avg:50)
38 Tanya Zanow Willara Somer 'o' Starlight 9 5:42:00 15.6, 12.8 14.04 34, 41, 54 (Avg:47)
26 Bronwyn James Lady Anna-Maree 10 6:22:00 15.6, 10.6 12.57 40, 39, 44 (Avg:41)
4 Jackie Swan Brecon Paraway 10 6:22:00 14.9, 10.9 12.57 35, 38, 42 (Avg:40)
22 Teena Cashin Kai Hai Winds O fire 12 6:23:00 15.6, 10.6 12.53 38, 32, 52 (Avg:42)
77 Lee Kain Campbell 13 6:27:00 14.4, 11.0 12.40 37, 45, 51 (Avg:48)
59 Robyn Pembroke Zephyrantes 14 6:33:01 14.6, 10.6 12.21 31, 38, 58 (Avg:48)
74 Caroline Fitzgerald Brentwood Dominica 15 6:38:00 14.7, 10.3 12.06 30, 36, 52 (Avg:44)
57 Olga Bartlett Jackson Brown 16 6:43:00 13.1, 11.0 11.91 33, 37, 41 (Avg:39)
19 Scott Hill Queshahna 17 6:58:00 14.7, 9.5 11.48 30, 40, 52 (Avg:46)
11 Jo Hamilton-Branigan Abrock Ned 18 7:25:00 13.0, 9.3 10.79 32, 45, 52 (Avg:48)
43 David Williams Rocking Horse Zahida 19 7:30:00 14.5, 8.6 10.67 33, 46, 49 (Avg:47)
15 Robyn Edwards Cedardell Nassar 20 7:32:00 13.3, 8.9 10.62 35, 40, 45 (Avg:42)
82 Gerry Emmerson Piabun Gigum 21 7:34:00 13.8, 8.7 10.57 40, 38, 54 (Avg:46)
41 Sandra Birch Kastana Heart Rate L2 0:00:00 14.3, 9.3 - 35, 44, 62 (Avg:53)
76 Abby Gill Sharahd Balladier Lame L2 0:00:00 18.3, 13.3 - 31, 42, 45 (Avg:43)
46 Lynne Holt El Jadara Heart Rate L2 0:00:00 14.6, 10.6 - 32, 37, 67 (Avg:52)
45 Brook Sample Sharahd Querita Lame L2 0:00:00 19.9, 20.1 - 30, 38, 48 (Avg:43)
64 Dean Stephen Pushti Lame L2 0:00:00 14.7, 10.3 - 38, 44, 49 (Avg:46)
93 Jean Taylor Vet School Aladdin Lame L2 0:00:00 13.0, 9.3 - 37, 43, 46 (Avg:44)
47 Barbara Macdonald Bremervale Tamika Lame L1 0:00:00 15.6 - 34, 44 (Avg:44)
29 Michelle Haack Shazzam Lame P/R 0:00:00 - - 35
Lightweight
32 Jenni Stretton Sharahd Carah 1 (BC) 4:14:00 19.9, 18.0 18.90 29, 37, 37 (Avg:37)
84 Lynn Annetts Keela Tashunka Witko 2 5:13:04 17.2, 13.9 15.33 32, 38, 45 (Avg:41)
71 Julie Fletcher Sunny 3 5:42:00 14.9, 13.2 14.04 38, 37, 44 (Avg:40)
48 Nerrida Wolfe-Purton Tallaroon Savannah 3 5:42:00 16.7, 12.2 14.04 40, 48, 57 (Avg:52)
34 Deborah Hargie Charabal Tanna 5 5:46:00 15.7, 12.5 13.87 32, 39, 46 (Avg:42)
81 Madonna Faux Saxonvale Hotshot 6 6:28:00 14.7, 10.8 12.37 33, 40, 42 (Avg:41)
50 Michelle Payne Fandanska 7 6:47:00 14.4, 10.1 11.79 35, 39, 40 (Avg:39)
69 Catrina Samson E Dowen Shardom 8 6:47:01 14.4, 10.1 11.79 37, 37, 47 (Avg:42)
12 Susan Kelman Manana Shadow 9 6:49:00 15.4, 9.6 11.74 43, 44, 56 (Avg:50)
63 Helen Stapleford Cassamere 10 6:49:01 12.3, 11.2 11.74 33, 38, 38 (Avg:38)
20 Danielle Flint Autumn Leaf 11 6:58:00 14.7, 9.5 11.48 28, 38, 47 (Avg:42)
31 Glenn Carter Danjera Baal 12 7:17:00 11.9, 10.2 10.98 31, 38, 42 (Avg:40)
28 Elaine Williams Jesse 13 7:31:00 14.5, 8.5 10.64 35, 40, 47 (Avg:43)
9 Viv Butler Sadaqa 14 7:33:00 13.5, 8.8 10.60 45, 41, 49 (Avg:45)
7 Cathy Herve Hilbrae Maxine 14 7:33:00 11.7, 9.7 10.60 35, 44, 48 (Avg:46)
8 Donna Nicolas Flying Sterling Banner 14 7:33:00 11.7, 9.7 10.60 36, 47, 47 (Avg:47)
67 Susanna Carter Yenvale Hamalete Heart Rate L2 0:00:00 11.9, 10.2 - 37, 48, 69 (Avg:58)
27 George Johnson Haychbee Dynomite Heart Rate L2 0:00:00 14.4, 10.5 - 37, 36, 66 (Avg:51)
75 Kylie Roth Pembac Park Khan Lame L2 0:00:00 18.0, 13.4 - 32, 40, 44 (Avg:42)
97 Robbie Pateman Arioca Frosty James Lame L1 0:00:00 12.8 - 37, 48 (Avg:48)
10 Karen Bauer Max Moniet Lame P/R 0:00:00 - - 37
Junior
14 Katie-Maree Cullen Dealbata Three Fingers 1 (BC) 4:49:00 18.5, 15.1 16.61 32, 46, 49 (Avg:47)
30 Lizzie Turner Alrene 2 4:49:01 19.3, 14.7 16.61 36, 46, 50 (Avg:48)
16 Michael Shaw Azerash Shahreza 3 6:10:00 14.9, 11.5 12.97 34, 42, 54 (Avg:48)
61 Kim Stubbins Chisholm 3 6:10:00 15.4, 11.3 12.97 36, 42, 48 (Avg:45)
49 Justin Pembroke Annandale Park Shanel 5 6:34:00 14.6, 10.5 12.18 32, 39, 54 (Avg:46)
35 Tabitha Johnstone Rockie 6 6:46:00 13.4, 10.6 11.82 34, 45, 40 (Avg:42)
73 Priscilla Field Bow 7 6:49:01 12.3, 11.2 11.74 27, 39, 44 (Avg:41)
5 Stephanie Hulett Golden Joy 8 7:34:00 13.8, 8.7 10.57 31, 40, 55 (Avg:47)
68 Thai Wilkinson Piabun Bururenggeny 8 7:34:00 13.5, 8.8 10.57 37, 42, 46 (Avg:44)
83 David Pembroke Ernlea Winsilcon Metabolics moderate L2 0:00:00 14.9, 10.4 - 31, 39, 58 (Avg:48)
85 John Bond Piabun Mundai Metabolics moderate L1 0:00:00 13.6 - 34, 37 (Avg:37)
33 Crystal Hargie Jauboo Lame L1 0:00:00 13.8 - 34, 42 (Avg:42)
37 Rachel Trevarthen Ernlea Tamtonah Lame L1 0:00:00 15.6 - 36, 40 (Avg:40)